Time;durP1;ratioP1;P1;durP2;ratioP2;P2;SDS_P1;SDS_P2;PMS_P1;PMS_P2;Temp;Humidity;BMP_temperature;BMP_pressure;BME280_temperature;BME280_humidity;BME280_pressure;Samples;Min_cycle;Max_cycle;Signal;HPM_P1;HPM_P2
2022/04/20 00:01:34;;;;;;;3.50;3.20;;;;;;;;;;6190943;23;20182;-87
2022/04/20 00:04:03;;;;;;;4.67;4.27;;;;;;;;;;6190927;23;20174;-87
2022/04/20 00:06:33;;;;;;;2.87;2.10;;;;;;;;;;6190888;23;20194;-88
2022/04/20 00:09:01;;;;;;;2.00;1.80;;;;;;;;;;6191459;23;20181;-88
2022/04/20 00:11:29;;;;;;;4.50;3.77;;;;;;;;;;6191094;23;20174;-88
2022/04/20 00:13:59;;;;;;;2.20;2.10;;;;;;;;;;6191491;23;20201;-87
2022/04/20 00:16:28;;;;;;;4.70;2.60;;;;;;;;;;6190968;23;20175;-87
2022/04/20 00:18:56;;;;;;;2.80;2.60;;;;;;;;;;6191355;23;20225;-88
2022/04/20 00:21:27;;;;;;;2.17;1.97;;;;;;;;;;6191060;23;20174;-87
2022/04/20 00:23:56;;;;;;;3.10;2.87;;;;;;;;;;6190957;23;20171;-87
2022/04/20 00:26:24;;;;;;;5.77;3.50;;;;;;;;;;6190976;23;20206;-87
2022/04/20 00:28:52;;;;;;;4.00;3.50;;;;;;;;;;6190501;23;20185;-87
2022/04/20 00:31:22;;;;;;;3.33;3.03;;;;;;;;;;6217665;23;20183;-87
2022/04/20 00:33:51;;;;;;;3.20;2.73;;;;;;;;;;6190398;23;20207;-87
2022/04/20 00:36:20;;;;;;;1.00;1.00;;;;;;;;;;6191121;23;20178;-87
2022/04/20 00:38:48;;;;;;;4.47;2.00;;;;;;;;;;6190961;23;20281;-87
2022/04/20 00:41:17;;;;;;;2.63;2.40;;;;;;;;;;6191188;23;20178;-87
2022/04/20 00:43:45;;;;;;;2.00;1.83;;;;;;;;;;6190912;23;20240;-87
2022/04/20 00:46:14;;;;;;;3.23;2.83;;;;;;;;;;6190964;23;20253;-87
2022/04/20 00:48:44;;;;;;;3.93;3.30;;;;;;;;;;6190401;23;20247;-87
2022/04/20 00:51:12;;;;;;;4.57;3.07;;;;;;;;;;6190855;23;20185;-87
2022/04/20 00:53:41;;;;;;;4.37;3.97;;;;;;;;;;6190634;23;20181;-87
2022/04/20 00:56:09;;;;;;;2.60;2.27;;;;;;;;;;6191101;23;20200;-88
2022/04/20 00:58:39;;;;;;;4.00;2.93;;;;;;;;;;6191224;23;20171;-87
2022/04/20 01:01:08;;;;;;;3.07;2.80;;;;;;;;;;6191239;23;20181;-87
2022/04/20 01:03:36;;;;;;;3.63;3.37;;;;;;;;;;6191148;23;20182;-87
2022/04/20 01:06:07;;;;;;;3.83;3.50;;;;;;;;;;6217271;23;20194;-86
2022/04/20 01:08:36;;;;;;;2.10;2.00;;;;;;;;;;6215873;23;20174;-87
2022/04/20 01:11:05;;;;;;;2.50;2.30;;;;;;;;;;6216523;23;20171;-86
2022/04/20 01:13:33;;;;;;;3.40;2.90;;;;;;;;;;6189931;23;20185;-87
2022/04/20 01:16:02;;;;;;;5.33;4.50;;;;;;;;;;6190336;23;20282;-87
2022/04/20 01:18:30;;;;;;;2.90;2.47;;;;;;;;;;6190650;23;20171;-87
2022/04/20 01:21:01;;;;;;;4.37;3.13;;;;;;;;;;6190117;23;20181;-87
2022/04/20 01:23:30;;;;;;;4.87;3.60;;;;;;;;;;6190855;23;20181;-87
2022/04/20 01:25:58;;;;;;;5.47;3.30;;;;;;;;;;6190643;23;20231;-87
2022/04/20 01:28:27;;;;;;;3.17;2.67;;;;;;;;;;6190102;23;20177;-87
2022/04/20 01:30:55;;;;;;;2.73;2.23;;;;;;;;;;6190608;23;20185;-87
2022/04/20 01:33:24;;;;;;;3.77;3.03;;;;;;;;;;6190574;23;20213;-87
2022/04/20 01:35:52;;;;;;;3.93;3.37;;;;;;;;;;6190445;23;20205;-87
2022/04/20 01:38:22;;;;;;;2.37;2.17;;;;;;;;;;6190608;23;20170;-88
2022/04/20 01:40:51;;;;;;;1.60;1.50;;;;;;;;;;6190523;23;20229;-87
2022/04/20 01:43:19;;;;;;;2.40;2.20;;;;;;;;;;6190471;23;20171;-87
2022/04/20 01:45:47;;;;;;;2.30;1.97;;;;;;;;;;6216684;23;20170;-87
2022/04/20 01:48:16;;;;;;;2.57;2.37;;;;;;;;;;6190666;23;20246;-87
2022/04/20 01:53:30;;;;;;;2.87;2.40;;;;;;;;;;6189323;23;20186;-87
2022/04/20 01:55:59;;;;;;;3.57;2.53;;;;;;;;;;6190480;23;20269;-86
2022/04/20 01:58:27;;;;;;;2.90;2.33;;;;;;;;;;6190060;23;20178;-87
2022/04/20 02:00:55;;;;;;;1.77;1.37;;;;;;;;;;6190284;23;20178;-87
2022/04/20 02:03:23;;;;;;;3.07;2.77;;;;;;;;;;6215284;23;20180;-87
2022/04/20 02:05:51;;;;;;;2.60;2.27;;;;;;;;;;6216437;23;20192;-88
2022/04/20 02:08:20;;;;;;;1.53;1.43;;;;;;;;;;6190459;23;20185;-87
2022/04/20 02:10:50;;;;;;;2.10;1.97;;;;;;;;;;6190107;23;20189;-87
2022/04/20 02:13:18;;;;;;;4.20;3.13;;;;;;;;;;6189509;23;20177;-87
2022/04/20 02:15:47;;;;;;;5.53;4.30;;;;;;;;;;6189935;23;20198;-87
2022/04/20 02:18:15;;;;;;;6.73;4.80;;;;;;;;;;6190327;23;20186;-87
2022/04/20 02:20:43;;;;;;;3.50;2.83;;;;;;;;;;6190310;23;20186;-88
2022/04/20 02:23:12;;;;;;;2.67;2.40;;;;;;;;;;6190151;23;20179;-88
2022/04/20 02:25:40;;;;;;;3.17;2.90;;;;;;;;;;6189883;23;20176;-87
2022/04/20 02:28:10;;;;;;;2.40;2.20;;;;;;;;;;6189678;23;20168;-88
2022/04/20 02:30:38;;;;;;;3.53;3.20;;;;;;;;;;6189759;23;20206;-88
2022/04/20 02:33:07;;;;;;;9.33;3.80;;;;;;;;;;6190045;23;20248;-88
2022/04/20 02:35:37;;;;;;;2.13;2.03;;;;;;;;;;6189742;23;20201;-88
2022/04/20 02:38:07;;;;;;;5.43;2.63;;;;;;;;;;6190167;23;20184;-88
2022/04/20 02:40:35;;;;;;;3.57;3.10;;;;;;;;;;6189599;23;20182;-87
2022/04/20 02:43:03;;;;;;;4.40;2.40;;;;;;;;;;6215766;23;20175;-88
2022/04/20 02:45:33;;;;;;;4.17;3.57;;;;;;;;;;6190232;23;20209;-88
2022/04/20 02:48:02;;;;;;;2.17;1.97;;;;;;;;;;6189849;23;20237;-87
2022/04/20 02:50:30;;;;;;;3.33;2.40;;;;;;;;;;6191412;23;20181;-87
2022/04/20 02:52:59;;;;;;;2.23;1.97;;;;;;;;;;6191693;23;20180;-87
2022/04/20 02:55:27;;;;;;;2.20;2.10;;;;;;;;;;6191669;23;20202;-88
2022/04/20 02:57:56;;;;;;;3.90;3.03;;;;;;;;;;6192512;23;20180;-87
2022/04/20 03:00:25;;;;;;;4.23;3.07;;;;;;;;;;6191962;23;20244;-87
2022/04/20 03:02:54;;;;;;;9.63;3.47;;;;;;;;;;6192109;23;20171;-87
2022/04/20 03:05:23;;;;;;;4.57;3.37;;;;;;;;;;6191792;23;20200;-87
2022/04/20 03:07:51;;;;;;;4.40;3.00;;;;;;;;;;6191739;23;20181;-87
2022/04/20 03:10:20;;;;;;;3.73;3.00;;;;;;;;;;6192243;23;20179;-87
2022/04/20 03:12:49;;;;;;;3.37;2.83;;;;;;;;;;6192254;23;20185;-87
2022/04/20 03:15:17;;;;;;;4.43;3.00;;;;;;;;;;6191682;23;20202;-87
2022/04/20 03:17:46;;;;;;;4.33;3.77;;;;;;;;;;6191568;23;20254;-86
2022/04/20 03:20:15;;;;;;;5.03;3.57;;;;;;;;;;6217050;23;20177;-86
2022/04/20 03:22:44;;;;;;;2.60;2.40;;;;;;;;;;6191559;23;20180;-87
2022/04/20 03:25:12;;;;;;;3.60;3.30;;;;;;;;;;6191665;23;20181;-87
2022/04/20 03:27:41;;;;;;;5.03;4.47;;;;;;;;;;6217724;23;20185;-89
2022/04/20 03:30:11;;;;;;;4.03;3.47;;;;;;;;;;6192319;23;20183;-87
2022/04/20 03:32:40;;;;;;;3.83;3.03;;;;;;;;;;6217752;23;20261;-87
2022/04/20 03:35:09;;;;;;;2.60;2.40;;;;;;;;;;6191444;23;20257;-87
2022/04/20 03:37:39;;;;;;;4.37;4.10;;;;;;;;;;6192042;23;20185;-87
2022/04/20 03:40:09;;;;;;;4.37;3.97;;;;;;;;;;6191477;23;20497;-87
2022/04/20 03:42:37;;;;;;;2.37;1.70;;;;;;;;;;6191148;23;20208;-87
2022/04/20 03:45:06;;;;;;;3.43;3.20;;;;;;;;;;6191699;23;20180;-87
2022/04/20 03:47:35;;;;;;;3.87;3.03;;;;;;;;;;6191368;23;20181;-87
2022/04/20 03:50:03;;;;;;;2.70;2.50;;;;;;;;;;6191526;23;20171;-88
2022/04/20 03:52:32;;;;;;;3.00;2.70;;;;;;;;;;6191609;23;20182;-88
2022/04/20 03:55:02;;;;;;;1.33;1.27;;;;;;;;;;6191213;23;20177;-88
2022/04/20 03:57:30;;;;;;;4.20;2.90;;;;;;;;;;6191447;23;20199;-87
2022/04/20 03:59:58;;;;;;;1.83;1.73;;;;;;;;;;6191029;23;20194;-86
2022/04/20 04:02:27;;;;;;;3.03;1.70;;;;;;;;;;6215375;23;20263;-87
2022/04/20 04:04:56;;;;;;;2.80;2.60;;;;;;;;;;6190894;23;20171;-87
2022/04/20 04:07:25;;;;;;;2.23;2.03;;;;;;;;;;6191118;23;20181;-87
2022/04/20 04:09:53;;;;;;;1.67;1.67;;;;;;;;;;6190926;23;20182;-87
2022/04/20 04:12:24;;;;;;;1.53;1.47;;;;;;;;;;6191394;23;20201;-87
2022/04/20 04:14:53;;;;;;;3.30;2.43;;;;;;;;;;6191054;23;20184;-88
2022/04/20 04:17:21;;;;;;;4.63;2.50;;;;;;;;;;6190865;23;20211;-87
2022/04/20 04:19:49;;;;;;;2.73;2.53;;;;;;;;;;6216221;23;20241;-87
2022/04/20 04:22:18;;;;;;;1.43;1.43;;;;;;;;;;6191004;23;20256;-88
2022/04/20 04:24:46;;;;;;;3.43;2.43;;;;;;;;;;6217027;23;20171;-87
2022/04/20 04:27:15;;;;;;;1.20;1.10;;;;;;;;;;6190635;23;20185;-87
2022/04/20 04:29:45;;;;;;;1.33;1.23;;;;;;;;;;6191459;23;20251;-87
2022/04/20 04:32:14;;;;;;;2.50;2.30;;;;;;;;;;6190950;23;20213;-87
2022/04/20 04:34:42;;;;;;;1.97;1.87;;;;;;;;;;6217303;23;20220;-87
2022/04/20 04:37:13;;;;;;;2.50;2.10;;;;;;;;;;6216496;23;20200;-87
2022/04/20 04:39:42;;;;;;;3.47;3.17;;;;;;;;;;6191105;23;20244;-88
2022/04/20 04:42:10;;;;;;;6.03;2.47;;;;;;;;;;6216032;23;20177;-87
2022/04/20 04:44:39;;;;;;;2.30;2.00;;;;;;;;;;6190597;23;20181;-87
2022/04/20 04:49:55;;;;;;;1.17;1.17;;;;;;;;;;6190982;23;20247;-87
2022/04/20 04:52:23;;;;;;;2.63;2.43;;;;;;;;;;6191059;23;20204;-87
2022/04/20 04:54:52;;;;;;;2.73;2.03;;;;;;;;;;6190787;23;20260;-88
2022/04/20 04:57:20;;;;;;;4.03;3.43;;;;;;;;;;6191952;23;20193;-87
2022/04/20 04:59:49;;;;;;;2.33;1.97;;;;;;;;;;6191144;23;20190;-88
2022/04/20 05:02:23;;;;;;;3.00;2.77;;;;;;;;;;6191771;23;20240;-88
2022/04/20 05:04:51;;;;;;;1.83;1.70;;;;;;;;;;6190557;23;20270;-88
2022/04/20 05:07:20;;;;;;;2.87;2.67;;;;;;;;;;6190859;23;20176;-89
2022/04/20 05:09:48;;;;;;;1.07;1.07;;;;;;;;;;6190955;23;20177;-89
2022/04/20 05:12:20;;;;;;;1.67;1.57;;;;;;;;;;6190762;23;20181;-87
2022/04/20 05:14:48;;;;;;;3.47;2.80;;;;;;;;;;6190775;23;20178;-88
2022/04/20 05:17:17;;;;;;;2.67;2.27;;;;;;;;;;6191353;23;20197;-89
2022/04/20 05:19:47;;;;;;;2.47;2.27;;;;;;;;;;6191815;23;20181;-87
2022/04/20 05:22:16;;;;;;;1.70;1.60;;;;;;;;;;6218949;23;20176;-87
2022/04/20 05:24:45;;;;;;;2.53;2.33;;;;;;;;;;6191002;23;20212;-87
2022/04/20 05:27:13;;;;;;;1.67;1.57;;;;;;;;;;6191072;23;20176;-87
2022/04/20 05:29:42;;;;;;;5.50;1.73;;;;;;;;;;6191275;23;20182;-87
2022/04/20 05:32:10;;;;;;;2.93;2.43;;;;;;;;;;6185885;23;20210;-87
2022/04/20 05:34:41;;;;;;;5.03;2.83;;;;;;;;;;6185924;23;20194;-81
2022/04/20 05:42:59;;;;;;;3.50;3.00;;;;;;;;;;6096485;23;20176;-87
2022/04/20 05:45:27;;;;;;;2.63;2.43;;;;;;;;;;6136411;23;20175;-86
2022/04/20 05:47:58;;;;;;;1.93;1.77;;;;;;;;;;6185841;23;20261;-87
2022/04/20 05:50:26;;;;;;;1.77;1.77;;;;;;;;;;6185161;23;20182;-87
2022/04/20 05:52:56;;;;;;;1.83;1.73;;;;;;;;;;6210418;23;20178;-87
2022/04/20 05:55:25;;;;;;;0.90;0.90;;;;;;;;;;6185304;23;20170;-86
2022/04/20 05:57:53;;;;;;;3.57;2.57;;;;;;;;;;6183893;23;20201;-85
2022/04/20 06:00:22;;;;;;;1.30;1.30;;;;;;;;;;6184786;23;20189;-86
2022/04/20 06:02:51;;;;;;;0.70;0.70;;;;;;;;;;6185081;23;20237;-86
2022/04/20 06:05:20;;;;;;;3.30;2.30;;;;;;;;;;6185507;23;20226;-86
2022/04/20 06:07:49;;;;;;;2.60;2.40;;;;;;;;;;6184323;23;20232;-87
2022/04/20 06:10:19;;;;;;;1.07;1.07;;;;;;;;;;6184957;23;20183;-86
2022/04/20 06:12:47;;;;;;;9.60;3.17;;;;;;;;;;6185892;23;20178;-86
2022/04/20 06:15:18;;;;;;;1.73;1.63;;;;;;;;;;6184538;23;20198;-86
2022/04/20 06:17:47;;;;;;;1.90;1.80;;;;;;;;;;6185850;23;20191;-86
2022/04/20 06:20:15;;;;;;;6.73;3.50;;;;;;;;;;6184509;23;20175;-86
2022/04/20 06:22:44;;;;;;;2.53;2.20;;;;;;;;;;6184176;23;20179;-86
2022/04/20 06:25:12;;;;;;;3.23;2.03;;;;;;;;;;6185926;23;20388;-86
2022/04/20 06:27:42;;;;;;;3.13;1.80;;;;;;;;;;6183881;23;20186;-86
2022/04/20 06:30:11;;;;;;;3.03;2.03;;;;;;;;;;6184855;23;20179;-86
2022/04/20 06:32:39;;;;;;;2.30;2.20;;;;;;;;;;6183781;23;20207;-86
2022/04/20 06:35:12;;;;;;;1.77;1.40;;;;;;;;;;6185149;23;20261;-89
2022/04/20 06:37:47;;;;;;;2.77;2.43;;;;;;;;;;6184216;23;20462;-88
2022/04/20 06:40:15;;;;;;;2.67;2.47;;;;;;;;;;6185013;23;20173;-90
2022/04/20 06:42:51;;;;;;;2.97;2.07;;;;;;;;;;6179768;23;20233;-87
2022/04/20 06:45:20;;;;;;;1.83;1.73;;;;;;;;;;6181562;23;20178;-88
2022/04/20 06:47:49;;;;;;;2.90;2.70;;;;;;;;;;6183279;23;20181;-87
2022/04/20 06:50:26;;;;;;;2.40;2.07;;;;;;;;;;6183278;23;20179;-87
2022/04/20 07:05:30;;;;;;;3.57;2.17;;;;;;;;;;6182675;23;20250;-87
2022/04/20 07:08:09;;;;;;;5.23;3.90;;;;;;;;;;6182600;23;20203;-87
2022/04/20 07:14:52;;;;;;;3.13;2.80;;;;;;;;;;6162570;23;20187;-87
2022/04/20 07:22:41;;;;;;;3.23;1.57;;;;;;;;;;6054821;23;20172;-88
2022/04/20 07:33:02;;;;;;;3.17;2.87;;;;;;;;;;5874265;24;20213;-88
2022/04/20 07:35:42;;;;;;;3.15;2.30;;;;;;;;;;5952420;24;20443;-88
2022/04/20 07:38:24;;;;;;;3.00;1.93;;;;;;;;;;5981839;24;20199;-87
2022/04/20 07:40:56;;;;;;;2.60;2.40;;;;;;;;;;5957322;24;20220;-87
2022/04/20 07:43:31;;;;;;;2.23;2.03;;;;;;;;;;5958538;24;20188;-87
2022/04/20 07:46:12;;;;;;;3.37;1.90;;;;;;;;;;5982952;24;20173;-88
2022/04/20 07:48:55;;;;;;;4.00;1.97;;;;;;;;;;5957729;24;20209;-87
2022/04/20 07:51:32;;;;;;;2.53;1.93;;;;;;;;;;5959141;24;20180;-88
2022/04/20 07:54:11;;;;;;;3.67;2.43;;;;;;;;;;5970946;23;20240;-86
2022/04/20 07:56:53;;;;;;;1.97;1.87;;;;;;;;;;6042094;23;20209;-86
2022/04/20 08:02:49;;;;;;;6.37;2.73;;;;;;;;;;6039767;23;20177;-88
2022/04/20 08:05:20;;;;;;;3.30;2.93;;;;;;;;;;6042283;23;20289;-87
2022/04/20 08:07:51;;;;;;;3.00;2.70;;;;;;;;;;6043942;23;20182;-90
2022/04/20 08:10:20;;;;;;;1.60;1.50;;;;;;;;;;6189141;23;20236;-87
2022/04/20 08:14:09;;;;;;;1.40;1.30;;;;;;;;;;6187885;23;20180;-86
2022/04/20 08:15:51;;;;;;;1.37;1.30;;;;;;;;;;6188777;23;20180;-85
2022/04/20 08:18:26;;;;;;;1.30;1.20;;;;;;;;;;6189231;23;20205;-87
2022/04/20 08:21:00;;;;;;;4.17;3.20;;;;;;;;;;6190616;23;20212;-86
2022/04/20 08:23:45;;;;;;;3.87;2.27;;;;;;;;;;6188308;23;20200;-86
2022/04/20 08:26:50;;;;;;;;;;;;;;;;;;;;;
2022/04/20 08:29:31;;;;;;;2.67;2.47;;;;;;;;;;6189751;23;20172;-88
2022/04/20 08:32:03;;;;;;;3.60;3.30;;;;;;;;;;6189708;23;20203;-87
2022/04/20 08:38:38;;;;;;;4.53;2.70;;;;;;;;;;6160691;23;20197;-86
2022/04/20 08:41:23;;;;;;;3.03;2.27;;;;;;;;;;6186548;23;20211;-86
2022/04/20 08:43:55;;;;;;;4.70;3.07;;;;;;;;;;6188099;23;20203;-86
2022/04/20 08:46:34;;;;;;;4.83;3.10;;;;;;;;;;6188635;23;20262;-86
2022/04/20 08:49:07;;;;;;;4.57;3.40;;;;;;;;;;6213421;23;20182;-85
2022/04/20 08:54:42;;;;;;;3.70;2.83;;;;;;;;;;6189042;23;20266;-86
2022/04/20 08:57:25;;;;;;;4.60;3.23;;;;;;;;;;6214632;23;20208;-86
2022/04/20 08:59:59;;;;;;;3.40;2.27;;;;;;;;;;6188544;23;20195;-86
2022/04/20 09:02:36;;;;;;;4.30;3.47;;;;;;;;;;6189348;23;20184;-86
2022/04/20 09:05:14;;;;;;;4.40;2.70;;;;;;;;;;6188799;23;20181;-86
2022/04/20 09:07:47;;;;;;;3.53;3.20;;;;;;;;;;6190274;23;20208;-86
2022/04/20 09:10:23;;;;;;;3.90;2.73;;;;;;;;;;6189213;23;20181;-86
2022/04/20 09:13:10;;;;;;;3.77;2.67;;;;;;;;;;6188741;23;20203;-90
2022/04/20 09:15:40;;;;;;;3.63;3.07;;;;;;;;;;6188813;23;20182;-87
2022/04/20 09:18:12;;;;;;;2.13;1.93;;;;;;;;;;6188532;23;20185;-86
2022/04/20 09:20:55;;;;;;;2.63;2.23;;;;;;;;;;6188323;23;20223;-86
2022/04/20 09:23:38;;;;;;;3.40;3.10;;;;;;;;;;6189072;23;20255;-88
2022/04/20 09:26:23;;;;;;;;;;;;;;;;;;;;;
2022/04/20 09:29:10;;;;;;;2.53;2.33;;;;;;;;;;6187938;23;20173;-87
2022/04/20 09:31:44;;;;;;;3.37;2.40;;;;;;;;;;6188178;23;20181;-86
2022/04/20 09:34:34;;;;;;;5.53;3.17;;;;;;;;;;6188596;23;20217;-86
2022/04/20 09:37:19;;;;;;;3.03;2.83;;;;;;;;;;6187949;23;20200;-86
2022/04/20 09:39:58;;;;;;;5.63;2.40;;;;;;;;;;6188221;23;20200;-86
2022/04/20 09:42:31;;;;;;;2.23;1.93;;;;;;;;;;6187549;23;20204;-86
2022/04/20 09:45:09;;;;;;;3.50;1.83;;;;;;;;;;6187895;23;20264;-87
2022/04/20 09:51:07;;;;;;;3.13;2.30;;;;;;;;;;6095249;23;20189;-86
2022/04/20 09:53:36;;;;;;;4.27;3.30;;;;;;;;;;6178869;23;20187;-86
2022/04/20 09:56:19;;;;;;;3.33;2.07;;;;;;;;;;6214699;23;20168;-85
2022/04/20 09:59:04;;;;;;;4.37;3.10;;;;;;;;;;6187119;23;20194;-86
2022/04/20 10:02:04;;;;;;;3.90;2.87;;;;;;;;;;6187272;23;20181;-86
2022/04/20 10:04:44;;;;;;;2.23;2.07;;;;;;;;;;6187818;23;20192;-87
2022/04/20 10:07:22;;;;;;;3.77;2.30;;;;;;;;;;6188247;23;20191;-87
2022/04/20 10:10:09;;;;;;;4.10;3.43;;;;;;;;;;6187561;23;20182;-87
2022/04/20 10:12:54;;;;;;;3.60;3.30;;;;;;;;;;6186860;23;20181;-87
2022/04/20 10:18:46;;;;;;;2.93;2.70;;;;;;;;;;6185455;23;20181;-86
2022/04/20 10:21:27;;;;;;;4.60;3.27;;;;;;;;;;6186882;23;20181;-85
2022/04/20 10:24:05;;;;;;;3.77;3.10;;;;;;;;;;6188030;23;20202;-86
2022/04/20 10:26:49;;;;;;;2.47;2.30;;;;;;;;;;6185162;23;20177;-85
2022/04/20 10:29:27;;;;;;;13.70;3.50;;;;;;;;;;6185987;23;20179;-86
2022/04/20 10:32:22;;;;;;;2.47;2.27;;;;;;;;;;6162808;23;20184;-87
2022/04/20 10:35:28;;;;;;;1.70;1.60;;;;;;;;;;6186293;23;20195;-87
2022/04/20 10:38:11;;;;;;;2.40;2.20;;;;;;;;;;6188064;23;20214;-85
2022/04/20 10:44:12;;;;;;;2.30;2.10;;;;;;;;;;6148679;23;20227;-87
2022/04/20 10:47:05;;;;;;;2.20;2.00;;;;;;;;;;6185587;23;20191;-88
2022/04/20 10:49:56;;;;;;;3.73;2.40;;;;;;;;;;6186452;23;20174;-88
2022/04/20 10:53:02;;;;;;;5.27;4.70;;;;;;;;;;6187014;23;20232;-86
2022/04/20 10:55:54;;;;;;;2.20;2.03;;;;;;;;;;6186849;23;20188;-85
2022/04/20 10:58:34;;;;;;;2.40;2.20;;;;;;;;;;6186285;23;20235;-88
2022/04/20 11:01:17;;;;;;;2.77;2.33;;;;;;;;;;6183319;23;20223;-87
2022/04/20 11:03:55;;;;;;;2.20;2.00;;;;;;;;;;6186091;23;20189;-86
2022/04/20 11:06:53;;;;;;;1.67;1.57;;;;;;;;;;6186492;23;20201;-87
2022/04/20 11:09:57;;;;;;;2.40;2.20;;;;;;;;;;6186426;23;20175;-87
2022/04/20 11:19:04;;;;;;;1.97;1.87;;;;;;;;;;6187201;23;20268;-88
2022/04/20 11:21:33;;;;;;;6.13;5.53;;;;;;;;;;6186162;23;20186;-87
2022/04/20 11:24:06;;;;;;;2.70;2.33;;;;;;;;;;6184987;23;20260;-84
2022/04/20 11:26:39;;;;;;;1.83;1.70;;;;;;;;;;6186002;23;20186;-84
2022/04/20 11:29:12;;;;;;;2.60;2.33;;;;;;;;;;6187522;23;20228;-84
2022/04/20 11:31:42;;;;;;;3.27;2.23;;;;;;;;;;6186773;23;20248;-86
2022/04/20 11:34:11;;;;;;;1.57;1.47;;;;;;;;;;6212968;23;20222;-86
2022/04/20 11:36:43;;;;;;;2.33;1.67;;;;;;;;;;6187584;23;20245;-87
2022/04/20 11:39:12;;;;;;;2.13;1.93;;;;;;;;;;6185307;23;20194;-85
2022/04/20 11:41:46;;;;;;;1.60;1.27;;;;;;;;;;6188295;23;20174;-86
2022/04/20 11:44:21;;;;;;;1.10;1.10;;;;;;;;;;6213556;23;20176;-84
2022/04/20 11:46:49;;;;;;;3.10;1.50;;;;;;;;;;6188111;23;20179;-85
2022/04/20 11:49:19;;;;;;;2.70;1.50;;;;;;;;;;6187261;23;20175;-85
2022/04/20 11:51:50;;;;;;;1.40;1.30;;;;;;;;;;6187183;23;20174;-86
2022/04/20 11:54:19;;;;;;;2.67;1.40;;;;;;;;;;6187901;23;20186;-84
2022/04/20 11:56:49;;;;;;;1.40;1.30;;;;;;;;;;6187212;23;20264;-87
2022/04/20 11:59:19;;;;;;;2.30;1.70;;;;;;;;;;6214541;23;20388;-84
2022/04/20 12:01:47;;;;;;;1.60;1.10;;;;;;;;;;6187593;23;20213;-86
2022/04/20 12:04:16;;;;;;;1.03;1.00;;;;;;;;;;6185891;23;20186;-85
2022/04/20 12:06:46;;;;;;;0.90;0.80;;;;;;;;;;6184647;23;20255;-83
2022/04/20 12:09:15;;;;;;;1.30;1.20;;;;;;;;;;6210758;23;20179;-84
2022/04/20 12:11:44;;;;;;;1.23;1.03;;;;;;;;;;6211970;23;20244;-85
2022/04/20 12:14:14;;;;;;;1.30;1.23;;;;;;;;;;6187040;23;20182;-84
2022/04/20 12:16:43;;;;;;;1.50;1.13;;;;;;;;;;6211744;23;20250;-85
2022/04/20 12:19:12;;;;;;;1.40;1.30;;;;;;;;;;6186104;23;20186;-84
2022/04/20 12:21:48;;;;;;;1.37;1.10;;;;;;;;;;6213328;23;20293;-85
2022/04/20 12:24:21;;;;;;;1.00;1.00;;;;;;;;;;6186848;23;20182;-85
2022/04/20 12:26:50;;;;;;;2.03;1.40;;;;;;;;;;6213878;23;20181;-85
2022/04/20 12:29:22;;;;;;;1.37;1.27;;;;;;;;;;6186749;23;20175;-83
2022/04/20 12:31:51;;;;;;;1.33;1.27;;;;;;;;;;6186497;23;20170;-83
2022/04/20 12:34:20;;;;;;;1.60;1.30;;;;;;;;;;6183569;23;20183;-83
2022/04/20 12:36:56;;;;;;;1.60;1.50;;;;;;;;;;6187506;23;20184;-85
2022/04/20 12:39:26;;;;;;;1.67;1.57;;;;;;;;;;6187194;23;20201;-83
2022/04/20 12:41:55;;;;;;;1.23;1.10;;;;;;;;;;6187764;23;20198;-87
2022/04/20 12:44:52;;;;;;;3.53;2.43;;;;;;;;;;6185997;23;20179;-86
2022/04/20 12:47:47;;;;;;;1.63;1.53;;;;;;;;;;6186193;23;20239;-84
2022/04/20 12:50:25;;;;;;;1.27;1.27;;;;;;;;;;6186139;23;20202;-83
2022/04/20 12:52:55;;;;;;;1.50;1.30;;;;;;;;;;6187730;23;20223;-90
2022/04/20 12:55:24;;;;;;;1.43;1.33;;;;;;;;;;6186829;23;20224;-85
2022/04/20 13:03:34;;;;;;;1.97;1.70;;;;;;;;;;6183435;23;20261;-83
2022/04/20 13:06:02;;;;;;;1.00;1.00;;;;;;;;;;6209090;23;20193;-83
2022/04/20 13:08:32;;;;;;;1.50;1.40;;;;;;;;;;6182606;23;20638;-84
2022/04/20 13:11:02;;;;;;;1.93;1.27;;;;;;;;;;6183418;23;20275;-83
2022/04/20 13:13:45;;;;;;;1.43;1.30;;;;;;;;;;6184971;23;20178;-82
2022/04/20 13:16:15;;;;;;;1.10;1.10;;;;;;;;;;6183767;23;20178;-82
2022/04/20 13:18:45;;;;;;;1.13;1.03;;;;;;;;;;6183766;23;20176;-83
2022/04/20 13:21:14;;;;;;;3.10;1.67;;;;;;;;;;6211883;23;20190;-83
2022/04/20 13:23:42;;;;;;;1.10;1.10;;;;;;;;;;6185888;23;20178;-85
2022/04/20 13:28:57;;;;;;;1.03;1.03;;;;;;;;;;6183535;23;20182;-83
2022/04/20 13:31:27;;;;;;;1.73;1.63;;;;;;;;;;6182613;23;20217;-82
2022/04/20 13:33:55;;;;;;;2.03;1.83;;;;;;;;;;6207930;23;20210;-86
2022/04/20 13:36:24;;;;;;;1.63;1.27;;;;;;;;;;6211157;23;20208;-85
2022/04/20 13:38:52;;;;;;;1.70;1.27;;;;;;;;;;6184947;23;20214;-84
2022/04/20 13:41:21;;;;;;;1.87;1.27;;;;;;;;;;6185395;23;20537;-85
2022/04/20 13:43:50;;;;;;;1.60;1.43;;;;;;;;;;6183745;23;20205;-84
2022/04/20 13:46:18;;;;;;;1.10;1.10;;;;;;;;;;6184687;23;20184;-85
2022/04/20 13:48:48;;;;;;;1.80;1.07;;;;;;;;;;6183820;23;20256;-84
2022/04/20 13:51:17;;;;;;;2.20;1.53;;;;;;;;;;6182631;23;20181;-84
2022/04/20 13:53:45;;;;;;;1.90;1.77;;;;;;;;;;6183833;23;20207;-83
2022/04/20 13:56:15;;;;;;;2.27;1.87;;;;;;;;;;6212256;23;20168;-84
2022/04/20 13:58:44;;;;;;;0.97;0.97;;;;;;;;;;6211930;23;20249;-85
2022/04/20 14:01:12;;;;;;;1.37;1.27;;;;;;;;;;6185536;23;20198;-85
2022/04/20 14:03:41;;;;;;;1.40;1.30;;;;;;;;;;6209602;23;20176;-83
2022/04/20 14:06:12;;;;;;;1.60;1.33;;;;;;;;;;6184100;23;20202;-82
2022/04/20 14:08:42;;;;;;;1.67;1.57;;;;;;;;;;6184616;23;20191;-85
2022/04/20 14:11:13;;;;;;;1.60;1.50;;;;;;;;;;6185591;23;20233;-85
2022/04/20 14:13:42;;;;;;;4.47;1.83;;;;;;;;;;6185453;23;20209;-87
2022/04/20 14:16:13;;;;;;;1.47;1.37;;;;;;;;;;6187097;23;20174;-86
2022/04/20 14:18:46;;;;;;;1.47;1.37;;;;;;;;;;6209420;23;20178;-86
2022/04/20 14:21:18;;;;;;;1.77;1.67;;;;;;;;;;6183930;23;20306;-83
2022/04/20 14:23:46;;;;;;;1.67;1.27;;;;;;;;;;6186494;23;20201;-84
2022/04/20 14:32:30;;;;;;;1.97;1.80;;;;;;;;;;6186085;23;20175;-90
2022/04/20 14:35:30;;;;;;;1.73;1.60;;;;;;;;;;6186412;23;20237;-91
2022/04/20 14:38:14;;;;;;;1.70;1.60;;;;;;;;;;6185621;23;20174;-91
2022/04/20 14:41:00;;;;;;;2.17;1.90;;;;;;;;;;6185729;23;20184;-91
2022/04/20 14:43:29;;;;;;;2.57;1.80;;;;;;;;;;6187044;23;20273;-90
2022/04/20 14:46:03;;;;;;;5.07;1.87;;;;;;;;;;6213391;23;20178;-90
2022/04/20 14:48:32;;;;;;;2.80;2.20;;;;;;;;;;6188616;23;20178;-91
2022/04/20 14:51:01;;;;;;;2.47;2.20;;;;;;;;;;6192003;23;20213;-88
2022/04/20 14:53:32;;;;;;;1.70;1.60;;;;;;;;;;6191162;23;20185;-91
2022/04/20 14:56:43;;;;;;;2.90;1.90;;;;;;;;;;6189216;23;20261;-91
2022/04/20 15:02:18;;;;;;;2.47;2.27;;;;;;;;;;6191040;23;20194;-90
2022/04/20 15:05:08;;;;;;;1.60;1.43;;;;;;;;;;6191462;23;20181;-89
2022/04/20 15:11:28;;;;;;;2.27;2.17;;;;;;;;;;6185160;23;20167;-89
2022/04/20 15:14:02;;;;;;;2.47;2.07;;;;;;;;;;6191072;23;20178;-89
2022/04/20 15:16:38;;;;;;;2.17;2.03;;;;;;;;;;6190884;23;20185;-89
2022/04/20 15:19:16;;;;;;;2.30;2.10;;;;;;;;;;6190834;23;20286;-89
2022/04/20 15:21:48;;;;;;;2.00;1.80;;;;;;;;;;6191249;23;20221;-88
2022/04/20 15:24:29;;;;;;;;;;;;;;;;;;;;;
2022/04/20 15:27:04;;;;;;;4.50;2.97;;;;;;;;;;6190565;23;20178;-91
2022/04/20 15:29:32;;;;;;;3.43;1.90;;;;;;;;;;6190510;23;20179;-85
2022/04/20 15:32:04;;;;;;;2.03;1.83;;;;;;;;;;6216305;23;20167;-86
2022/04/20 15:34:33;;;;;;;3.57;2.97;;;;;;;;;;6185347;23;20207;-85
2022/04/20 15:37:05;;;;;;;1.90;1.80;;;;;;;;;;6185387;23;20179;-85
2022/04/20 15:39:34;;;;;;;2.60;2.23;;;;;;;;;;6185258;23;20241;-86
2022/04/20 15:42:25;;;;;;;2.60;2.10;;;;;;;;;;6186614;23;20224;-85
2022/04/20 15:44:54;;;;;;;1.77;1.67;;;;;;;;;;6185853;23;20182;-85
2022/04/20 15:47:23;;;;;;;2.43;2.23;;;;;;;;;;6185752;23;20258;-85
2022/04/20 15:49:51;;;;;;;4.27;2.50;;;;;;;;;;6186377;23;20184;-85
2022/04/20 15:52:20;;;;;;;3.83;2.10;;;;;;;;;;6186803;23;20181;-85
2022/04/20 16:00:14;;;;;;;3.97;1.87;;;;;;;;;;6185911;23;20267;-86
2022/04/20 16:00:26;;;;;;;4.33;4.03;;;;;;;;;;6185516;23;20179;-85
2022/04/20 16:02:55;;;;;;;1.93;1.83;;;;;;;;;;6185363;23;20194;-85
2022/04/20 16:05:24;;;;;;;2.37;2.27;;;;;;;;;;6187033;23;20191;-85
2022/04/20 16:07:52;;;;;;;2.73;1.83;;;;;;;;;;6185147;23;20185;-85
2022/04/20 16:10:22;;;;;;;1.60;1.50;;;;;;;;;;6186778;23;20175;-85
2022/04/20 16:12:51;;;;;;;3.13;2.00;;;;;;;;;;6185131;23;20179;-85
2022/04/20 16:15:20;;;;;;;2.03;1.93;;;;;;;;;;6185542;23;20211;-85
2022/04/20 16:17:49;;;;;;;3.67;2.40;;;;;;;;;;6184780;23;20189;-85
2022/04/20 16:20:20;;;;;;;3.07;1.97;;;;;;;;;;6186687;23;20250;-85
2022/04/20 16:22:51;;;;;;;2.83;1.93;;;;;;;;;;6184933;23;20199;-86
2022/04/20 16:25:19;;;;;;;2.87;2.10;;;;;;;;;;6185961;23;20182;-85
2022/04/20 16:27:48;;;;;;;1.30;1.20;;;;;;;;;;6185411;23;20176;-84
2022/04/20 16:30:17;;;;;;;2.07;1.97;;;;;;;;;;6185199;23;20178;-85
2022/04/20 16:32:46;;;;;;;3.73;2.17;;;;;;;;;;6187916;23;20211;-84
2022/04/20 16:35:14;;;;;;;2.00;1.90;;;;;;;;;;6188984;23;20185;-83
2022/04/20 16:37:43;;;;;;;2.30;2.10;;;;;;;;;;6189568;23;20175;-84
2022/04/20 16:40:11;;;;;;;1.37;1.27;;;;;;;;;;6215933;23;20183;-85
2022/04/20 16:42:43;;;;;;;2.00;1.83;;;;;;;;;;6190026;23;20201;-84
2022/04/20 16:45:12;;;;;;;1.27;1.17;;;;;;;;;;6189998;23;20178;-85
2022/04/20 16:47:43;;;;;;;2.30;2.17;;;;;;;;;;6216081;23;20176;-84
2022/04/20 16:50:12;;;;;;;2.10;1.90;;;;;;;;;;6190058;23;20171;-84